Map

Track Data

SID SEASON NUMBER BASIN SUBBASIN NAME ISO_TIME NATURE LAT LON WMO_WIND WMO_PRES WMO_AGENCY TRACK_TYPE DIST2LAND LANDFALL IFLAG USA_AGENCY USA_ATCF_ID USA_LAT USA_LON USA_RECORD USA_STATUS USA_WIND USA_PRES USA_SSHS USA_R34_NE USA_R34_SE USA_R34_SW USA_R34_NW USA_R50_NE USA_R50_SE USA_R50_SW USA_R50_NW USA_R64_NE USA_R64_SE USA_R64_SW USA_R64_NW USA_POCI USA_ROCI USA_RMW USA_EYE TOKYO_LAT TOKYO_LON TOKYO_GRADE TOKYO_WIND TOKYO_PRES TOKYO_R50_DIR TOKYO_R50_LONG TOKYO_R50_SHORT TOKYO_R30_DIR TOKYO_R30_LONG TOKYO_R30_SHORT TOKYO_LAND CMA_LAT CMA_LON CMA_CAT CMA_WIND CMA_PRES HKO_LAT HKO_LON HKO_CAT HKO_WIND HKO_PRES NEWDELHI_LAT NEWDELHI_LON NEWDELHI_GRADE NEWDELHI_WIND NEWDELHI_PRES NEWDELHI_CI NEWDELHI_DP NEWDELHI_POCI REUNION_LAT REUNION_LON REUNION_TYPE REUNION_WIND REUNION_PRES REUNION_TNUM REUNION_CI REUNION_RMW REUNION_R34_NE REUNION_R34_SE REUNION_R34_SW REUNION_R34_NW REUNION_R50_NE REUNION_R50_SE REUNION_R50_SW REUNION_R50_NW REUNION_R64_NE REUNION_R64_SE REUNION_R64_SW REUNION_R64_NW BOM_LAT BOM_LON BOM_TYPE BOM_WIND BOM_PRES BOM_TNUM BOM_CI BOM_RMW BOM_R34_NE BOM_R34_SE BOM_R34_SW BOM_R34_NW BOM_R50_NE BOM_R50_SE BOM_R50_SW BOM_R50_NW BOM_R64_NE BOM_R64_SE BOM_R64_SW BOM_R64_NW BOM_ROCI BOM_POCI BOM_EYE BOM_POS_METHOD BOM_PRES_METHOD NADI_LAT NADI_LON NADI_CAT NADI_WIND NADI_PRES WELLINGTON_LAT WELLINGTON_LON WELLINGTON_WIND WELLINGTON_PRES DS824_LAT DS824_LON DS824_STAGE DS824_WIND DS824_PRES TD9636_LAT TD9636_LON TD9636_STAGE TD9636_WIND TD9636_PRES TD9635_LAT TD9635_LON TD9635_WIND TD9635_PRES TD9635_ROCI NEUMANN_LAT NEUMANN_LON NEUMANN_CLASS NEUMANN_WIND NEUMANN_PRES MLC_LAT MLC_LON MLC_CLASS MLC_WIND MLC_PRES USA_GUST BOM_GUST BOM_GUST_PER REUNION_GUST REUNION_GUST_PER USA_SEAHGT USA_SEARAD_NE USA_SEARAD_SE USA_SEARAD_SW USA_SEARAD_NW STORM_SPEED STORM_DIR
1861091S07085 1861 12 SI MM NOT_NAMED 1861-04-01 06:00:00 NR -6.80000 85.4000 main 1519 1508 _____O________ -1 -6.80000 85.4000 99 9.90000 6 261
1861091S07085 1861 12 SI MM NOT_NAMED 1861-04-01 09:00:00 NR -6.84741 85.1008 main 1508 1508 _____P________ -1 -6.84741 85.1008 99 6 261
1861091S07085 1861 12 SI MM NOT_NAMED 1861-04-01 12:00:00 NR -6.89852 84.7991 main 1508 1498 _____P________ -1 -6.89852 84.7991 99 6 260
1861091S07085 1861 12 SI MM NOT_NAMED 1861-04-01 15:00:00 NR -6.95721 84.4926 main 1509 1499 _____P________ -1 -6.95721 84.4926 99 6 258
1861091S07085 1861 12 SI MM NOT_NAMED 1861-04-01 18:00:00 NR -7.02737 84.1787 main 1499 1496 _____P________ -1 -7.02737 84.1787 99 7 256
1861091S07085 1861 12 SI MM NOT_NAMED 1861-04-01 21:00:00 NR -7.11287 83.8550 main 1502 1496 _____P________ -1 -7.11287 83.8550 99 7 254
1861091S07085 1861 12 SI MM NOT_NAMED 1861-04-02 00:00:00 NR -7.21756 83.5190 main 1502 1500 _____P________ -1 -7.21756 83.5190 99 7 251
1861091S07085 1861 12 SI MM NOT_NAMED 1861-04-02 03:00:00 NR -7.34532 83.1682 main 1507 1507 _____P________ -1 -7.34532 83.1682 99 8 248
1861091S07085 1861 12 SI MM NOT_NAMED 1861-04-02 06:00:00 NR -7.50000 82.8000 main 1521 1519 _____O________ -1 -7.50000 82.8000 99 9.90000 8 246
1861091S07085 1861 12 SI MM NOT_NAMED 1861-04-02 09:00:00 NR -7.68414 82.4138 main 1537 1535 _____P________ -1 -7.68414 82.4138 99 9 243
1861091S07085 1861 12 SI MM NOT_NAMED 1861-04-02 12:00:00 NR -7.89502 82.0164 main 1554 1553 _____P________ -1 -7.89502 82.0164 99 9 241
1861091S07085 1861 12 SI MM NOT_NAMED 1861-04-02 15:00:00 NR -8.12866 81.6169 main 1572 1572 _____P________ -1 -8.12866 81.6169 99 9 238
1861091S07085 1861 12 SI MM NOT_NAMED 1861-04-02 18:00:00 NR -8.38107 81.2241 main 1603 1603 _____P________ -1 -8.38107 81.2241 99 9 236
1861091S07085 1861 12 SI MM NOT_NAMED 1861-04-02 21:00:00 NR -8.64830 80.8469 main 1624 1624 _____P________ -1 -8.64830 80.8469 99 9 233
1861091S07085 1861 12 SI MM NOT_NAMED 1861-04-03 00:00:00 NR -8.92645 80.4945 main 1658 1658 _____P________ -1 -8.92645 80.4945 99 9 230
1861091S07085 1861 12 SI MM NOT_NAMED 1861-04-03 03:00:00 NR -9.21163 80.1758 main 1692 1692 _____P________ -1 -9.21163 80.1758 99 8 226
1861091S07085 1861 12 SI MM NOT_NAMED 1861-04-03 06:00:00 NR -9.50000 79.9000 reunion main 1727 1727 _____O________ -1 -9.50000 79.9000 99 9.90000 8 220
1861091S07085 1861 12 SI MM NOT_NAMED 1861-04-03 09:00:00 NR -9.79021 79.6770 main 1762 1762 _____P________ -1 -9.79021 79.6770 99 7 214
1861091S07085 1861 12 SI MM NOT_NAMED 1861-04-03 12:00:00 NR -10.0890 79.4943 main 1796 1796 _____P________ -1 -10.0890 79.4943 99 7 208
1861091S07085 1861 12 SI MM NOT_NAMED 1861-04-03 15:00:00 NR -10.3918 79.3474 main 1832 1832 _____P________ -1 -10.3918 79.3474 99 7 203
1861091S07085 1861 12 SI MM NOT_NAMED 1861-04-03 18:00:00 NR -10.6939 79.2320 main 1866 1866 _____P________ -1 -10.6939 79.2320 99 6 199
1861091S07085 1861 12 SI MM NOT_NAMED 1861-04-03 21:00:00 NR -10.9905 79.1440 main 1900 1900 _____P________ -1 -10.9905 79.1440 99 6 194
1861091S07085 1861 12 SI MM NOT_NAMED 1861-04-04 00:00:00 NR -11.2768 79.0788 main 1934 1934 _____P________ -1 -11.2768 79.0788 99 6 191
1861091S07085 1861 12 SI MM NOT_NAMED 1861-04-04 03:00:00 NR -11.5483 79.0323 main 1957 1957 _____P________ -1 -11.5483 79.0323 99 5 189
1861091S07085 1861 12 SI MM NOT_NAMED 1861-04-04 06:00:00 NR -11.8000 79.0000 reunion main 1991 1991 _____O________ -1 -11.8000 79.0000 99 9.90000 5 186
1861091S07085 1861 12 SI MM NOT_NAMED 1861-04-04 09:00:00 NR -12.0285 78.9782 main 2013 2013 _____P________ -1 -12.0285 78.9782 99 4 184
1861091S07085 1861 12 SI MM NOT_NAMED 1861-04-04 12:00:00 NR -12.2357 78.9651 main 2035 2035 _____P________ -1 -12.2357 78.9651 99 4 0
1861091S07085 1861 12 SI MM NOT_NAMED 1861-04-04 15:00:00 NR -12.4244 78.9594 main 2057 2057 _____P________ -1 -12.4244 78.9594 99 4 183
1861091S07085 1861 12 SI MM NOT_NAMED 1861-04-04 18:00:00 NR -12.5979 78.9600 main 2080 2080 _____P________ -1 -12.5979 78.9600 99 3 176
1861091S07085 1861 12 SI MM NOT_NAMED 1861-04-04 21:00:00 NR -12.7591 78.9656 main 2102 2102 _____P________ -1 -12.7591 78.9656 99 3 176
1861091S07085 1861 12 SI MM NOT_NAMED 1861-04-05 00:00:00 NR -12.9112 78.9750 main 2113 2113 _____P________ -1 -12.9112 78.9750 99 3 176
1861091S07085 1861 12 SI MM NOT_NAMED 1861-04-05 03:00:00 NR -13.0571 78.9869 main 2136 2136 _____P________ -1 -13.0571 78.9869 99 3 0
1861091S07085 1861 12 SI MM NOT_NAMED 1861-04-05 06:00:00 NR -13.2000 79.0000 reunion main 2147 _____O________ -1 -13.2000 79.0000 99 9.90000 3 0

About IBTrACS Database

This database is a web-friendly format of International Best Track Archive for Climate Stewardship (IBTrACS), a global best track data archive curated by NOAA dating back to 1842.

Updated: 2021-10-21